sensor_id;sensor_type;location;lat;lon;timestamp;P1;durP1;ratioP1;P2;durP2;ratioP2
69678;SDS011;56915;52.046;4.854;2023-02-04T00:00:57;22.95;;;2.05;;
69678;SDS011;56915;52.046;4.854;2023-02-04T00:03:23;18.42;;;1.90;;
69678;SDS011;56915;52.046;4.854;2023-02-04T00:05:50;22.03;;;2.37;;
69678;SDS011;56915;52.046;4.854;2023-02-04T00:08:17;21.95;;;1.95;;
69678;SDS011;56915;52.046;4.854;2023-02-04T00:10:44;23.38;;;2.28;;
69678;SDS011;56915;52.046;4.854;2023-02-04T00:13:12;29.73;;;2.45;;
69678;SDS011;56915;52.046;4.854;2023-02-04T00:15:41;25.38;;;2.60;;
69678;SDS011;56915;52.046;4.854;2023-02-04T00:18:09;28.23;;;2.47;;
69678;SDS011;56915;52.046;4.854;2023-02-04T00:20:36;21.55;;;2.10;;
69678;SDS011;56915;52.046;4.854;2023-02-04T00:23:02;26.10;;;2.80;;
69678;SDS011;56915;52.046;4.854;2023-02-04T00:25:29;17.63;;;2.10;;
69678;SDS011;56915;52.046;4.854;2023-02-04T00:27:56;23.20;;;2.10;;
69678;SDS011;56915;52.046;4.854;2023-02-04T00:30:23;22.50;;;2.70;;
69678;SDS011;56915;52.046;4.854;2023-02-04T00:32:49;25.25;;;3.28;;
69678;SDS011;56915;52.046;4.854;2023-02-04T00:35:20;18.50;;;2.15;;
69678;SDS011;56915;52.046;4.854;2023-02-04T00:37:48;28.73;;;2.85;;
69678;SDS011;56915;52.046;4.854;2023-02-04T00:40:16;22.08;;;2.45;;
69678;SDS011;56915;52.046;4.854;2023-02-04T00:42:43;21.87;;;2.00;;
69678;SDS011;56915;52.046;4.854;2023-02-04T00:45:09;17.02;;;1.98;;
69678;SDS011;56915;52.046;4.854;2023-02-04T00:47:37;19.00;;;2.22;;
69678;SDS011;56915;52.046;4.854;2023-02-04T00:50:04;23.08;;;2.63;;
69678;SDS011;56915;52.046;4.854;2023-02-04T00:52:31;20.50;;;2.40;;
69678;SDS011;56915;52.046;4.854;2023-02-04T00:54:58;23.20;;;2.07;;
69678;SDS011;56915;52.046;4.854;2023-02-04T00:57:25;17.67;;;1.67;;
69678;SDS011;56915;52.046;4.854;2023-02-04T00:59:52;18.23;;;1.75;;
69678;SDS011;56915;52.046;4.854;2023-02-04T01:02:18;13.73;;;1.63;;
69678;SDS011;56915;52.046;4.854;2023-02-04T01:04:45;20.67;;;2.35;;
69678;SDS011;56915;52.046;4.854;2023-02-04T01:07:12;18.40;;;2.13;;
69678;SDS011;56915;52.046;4.854;2023-02-04T01:09:39;25.70;;;2.25;;
69678;SDS011;56915;52.046;4.854;2023-02-04T01:12:06;17.20;;;1.92;;
69678;SDS011;56915;52.046;4.854;2023-02-04T01:14:33;19.33;;;1.80;;
69678;SDS011;56915;52.046;4.854;2023-02-04T01:16:59;18.10;;;2.13;;
69678;SDS011;56915;52.046;4.854;2023-02-04T01:19:26;28.13;;;2.17;;
69678;SDS011;56915;52.046;4.854;2023-02-04T01:21:53;24.73;;;2.50;;
69678;SDS011;56915;52.046;4.854;2023-02-04T01:24:20;28.23;;;2.33;;
69678;SDS011;56915;52.046;4.854;2023-02-04T01:26:47;32.50;;;2.13;;
69678;SDS011;56915;52.046;4.854;2023-02-04T01:29:13;29.10;;;2.58;;
69678;SDS011;56915;52.046;4.854;2023-02-04T01:31:40;32.57;;;2.40;;
69678;SDS011;56915;52.046;4.854;2023-02-04T01:34:07;28.85;;;2.30;;
69678;SDS011;56915;52.046;4.854;2023-02-04T01:36:34;24.55;;;2.03;;
69678;SDS011;56915;52.046;4.854;2023-02-04T01:39:01;29.38;;;2.58;;
69678;SDS011;56915;52.046;4.854;2023-02-04T01:41:28;39.50;;;3.28;;
69678;SDS011;56915;52.046;4.854;2023-02-04T01:43:55;38.03;;;4.10;;
69678;SDS011;56915;52.046;4.854;2023-02-04T01:46:22;32.15;;;2.88;;
69678;SDS011;56915;52.046;4.854;2023-02-04T01:48:49;28.88;;;2.33;;
69678;SDS011;56915;52.046;4.854;2023-02-04T01:51:18;22.65;;;2.13;;
69678;SDS011;56915;52.046;4.854;2023-02-04T01:53:53;35.20;;;2.72;;
69678;SDS011;56915;52.046;4.854;2023-02-04T01:56:24;37.93;;;2.80;;
69678;SDS011;56915;52.046;4.854;2023-02-04T01:58:53;28.20;;;2.60;;
69678;SDS011;56915;52.046;4.854;2023-02-04T02:01:34;22.38;;;1.90;;
69678;SDS011;56915;52.046;4.854;2023-02-04T02:04:10;29.25;;;2.53;;
69678;SDS011;56915;52.046;4.854;2023-02-04T02:06:43;34.55;;;2.75;;
69678;SDS011;56915;52.046;4.854;2023-02-04T02:09:14;28.50;;;2.27;;
69678;SDS011;56915;52.046;4.854;2023-02-04T02:11:41;29.77;;;2.33;;
69678;SDS011;56915;52.046;4.854;2023-02-04T02:14:08;30.20;;;2.67;;
69678;SDS011;56915;52.046;4.854;2023-02-04T02:16:36;31.60;;;2.60;;
69678;SDS011;56915;52.046;4.854;2023-02-04T02:19:03;26.33;;;2.10;;
69678;SDS011;56915;52.046;4.854;2023-02-04T02:21:37;28.40;;;2.57;;
69678;SDS011;56915;52.046;4.854;2023-02-04T02:26:54;26.83;;;2.67;;
69678;SDS011;56915;52.046;4.854;2023-02-04T02:29:25;28.08;;;2.97;;
69678;SDS011;56915;52.046;4.854;2023-02-04T02:31:52;24.73;;;2.70;;
69678;SDS011;56915;52.046;4.854;2023-02-04T02:34:23;33.97;;;3.50;;
69678;SDS011;56915;52.046;4.854;2023-02-04T02:36:52;29.10;;;3.00;;
69678;SDS011;56915;52.046;4.854;2023-02-04T02:39:19;28.13;;;2.88;;
69678;SDS011;56915;52.046;4.854;2023-02-04T02:41:46;37.47;;;2.65;;
69678;SDS011;56915;52.046;4.854;2023-02-04T02:44:13;30.42;;;3.40;;
69678;SDS011;56915;52.046;4.854;2023-02-04T02:46:42;27.63;;;3.97;;
69678;SDS011;56915;52.046;4.854;2023-02-04T02:49:17;39.58;;;5.38;;
69678;SDS011;56915;52.046;4.854;2023-02-04T02:51:45;38.55;;;4.80;;
69678;SDS011;56915;52.046;4.854;2023-02-04T02:56:49;25.35;;;3.10;;
69678;SDS011;56915;52.046;4.854;2023-02-04T02:59:17;27.37;;;2.60;;
69678;SDS011;56915;52.046;4.854;2023-02-04T03:02:02;23.23;;;2.95;;
69678;SDS011;56915;52.046;4.854;2023-02-04T03:04:32;32.47;;;3.20;;
69678;SDS011;56915;52.046;4.854;2023-02-04T03:07:05;23.33;;;2.75;;
69678;SDS011;56915;52.046;4.854;2023-02-04T03:09:36;29.88;;;3.47;;
69678;SDS011;56915;52.046;4.854;2023-02-04T03:12:12;29.15;;;3.50;;
69678;SDS011;56915;52.046;4.854;2023-02-04T03:18:27;25.20;;;2.90;;
69678;SDS011;56915;52.046;4.854;2023-02-04T03:21:50;32.40;;;3.20;;
69678;SDS011;56915;52.046;4.854;2023-02-04T03:24:53;26.10;;;3.28;;
69678;SDS011;56915;52.046;4.854;2023-02-04T03:27:32;34.88;;;2.95;;
69678;SDS011;56915;52.046;4.854;2023-02-04T03:38:41;45.33;;;6.05;;
69678;SDS011;56915;52.046;4.854;2023-02-04T03:45:01;48.10;;;7.50;;
69678;SDS011;56915;52.046;4.854;2023-02-04T03:47:42;34.80;;;4.63;;
69678;SDS011;56915;52.046;4.854;2023-02-04T03:58:40;28.70;;;3.10;;
69678;SDS011;56915;52.046;4.854;2023-02-04T04:23:56;42.13;;;5.80;;
69678;SDS011;56915;52.046;4.854;2023-02-04T04:51:00;25.10;;;3.72;;
69678;SDS011;56915;52.046;4.854;2023-02-04T04:53:27;17.77;;;2.77;;
69678;SDS011;56915;52.046;4.854;2023-02-04T04:55:54;25.52;;;3.00;;
69678;SDS011;56915;52.046;4.854;2023-02-04T04:58:20;22.02;;;3.55;;
69678;SDS011;56915;52.046;4.854;2023-02-04T05:00:47;22.73;;;3.00;;
69678;SDS011;56915;52.046;4.854;2023-02-04T05:03:14;25.58;;;2.80;;
69678;SDS011;56915;52.046;4.854;2023-02-04T05:05:41;30.03;;;3.00;;
69678;SDS011;56915;52.046;4.854;2023-02-04T05:08:08;36.50;;;2.78;;
69678;SDS011;56915;52.046;4.854;2023-02-04T05:10:38;29.20;;;2.85;;
69678;SDS011;56915;52.046;4.854;2023-02-04T05:13:05;25.13;;;2.75;;
69678;SDS011;56915;52.046;4.854;2023-02-04T05:15:32;27.20;;;3.05;;
69678;SDS011;56915;52.046;4.854;2023-02-04T05:17:59;24.93;;;2.97;;
69678;SDS011;56915;52.046;4.854;2023-02-04T05:20:26;27.10;;;2.95;;
69678;SDS011;56915;52.046;4.854;2023-02-04T05:22:53;22.55;;;2.83;;
69678;SDS011;56915;52.046;4.854;2023-02-04T05:25:26;29.17;;;3.03;;
69678;SDS011;56915;52.046;4.854;2023-02-04T05:27:54;35.92;;;2.80;;
69678;SDS011;56915;52.046;4.854;2023-02-04T05:30:21;22.57;;;2.67;;
69678;SDS011;56915;52.046;4.854;2023-02-04T05:32:47;27.45;;;2.90;;
69678;SDS011;56915;52.046;4.854;2023-02-04T05:35:14;30.67;;;3.13;;
69678;SDS011;56915;52.046;4.854;2023-02-04T05:37:41;34.95;;;3.22;;
69678;SDS011;56915;52.046;4.854;2023-02-04T05:40:08;24.40;;;3.17;;
69678;SDS011;56915;52.046;4.854;2023-02-04T05:42:36;30.47;;;3.10;;
69678;SDS011;56915;52.046;4.854;2023-02-04T05:45:03;33.13;;;3.75;;
69678;SDS011;56915;52.046;4.854;2023-02-04T05:47:38;30.73;;;3.63;;
69678;SDS011;56915;52.046;4.854;2023-02-04T05:50:05;32.70;;;3.75;;
69678;SDS011;56915;52.046;4.854;2023-02-04T05:52:33;36.60;;;3.42;;
69678;SDS011;56915;52.046;4.854;2023-02-04T05:55:00;37.43;;;3.37;;
69678;SDS011;56915;52.046;4.854;2023-02-04T05:57:27;23.77;;;2.90;;
69678;SDS011;56915;52.046;4.854;2023-02-04T05:59:54;28.33;;;2.67;;
69678;SDS011;56915;52.046;4.854;2023-02-04T06:02:21;23.42;;;2.63;;
69678;SDS011;56915;52.046;4.854;2023-02-04T06:04:47;21.80;;;2.70;;
69678;SDS011;56915;52.046;4.854;2023-02-04T06:07:14;29.37;;;2.73;;
69678;SDS011;56915;52.046;4.854;2023-02-04T06:09:41;30.67;;;3.05;;
69678;SDS011;56915;52.046;4.854;2023-02-04T06:12:08;35.05;;;2.95;;
69678;SDS011;56915;52.046;4.854;2023-02-04T06:14:35;19.83;;;2.50;;
69678;SDS011;56915;52.046;4.854;2023-02-04T06:17:02;32.28;;;3.30;;
69678;SDS011;56915;52.046;4.854;2023-02-04T06:19:29;26.50;;;2.80;;
69678;SDS011;56915;52.046;4.854;2023-02-04T06:21:56;30.05;;;2.88;;
69678;SDS011;56915;52.046;4.854;2023-02-04T06:24:23;27.65;;;2.63;;
69678;SDS011;56915;52.046;4.854;2023-02-04T06:26:50;25.55;;;2.95;;
69678;SDS011;56915;52.046;4.854;2023-02-04T06:29:16;31.73;;;3.45;;
69678;SDS011;56915;52.046;4.854;2023-02-04T06:31:43;34.50;;;4.10;;
69678;SDS011;56915;52.046;4.854;2023-02-04T06:34:10;37.38;;;4.30;;
69678;SDS011;56915;52.046;4.854;2023-02-04T06:36:37;27.48;;;3.97;;
69678;SDS011;56915;52.046;4.854;2023-02-04T06:39:04;29.27;;;3.45;;
69678;SDS011;56915;52.046;4.854;2023-02-04T06:41:31;24.63;;;3.38;;
69678;SDS011;56915;52.046;4.854;2023-02-04T06:43:57;36.67;;;4.90;;
69678;SDS011;56915;52.046;4.854;2023-02-04T06:46:24;145.98;;;31.95;;
69678;SDS011;56915;52.046;4.854;2023-02-04T06:48:51;95.90;;;26.77;;
69678;SDS011;56915;52.046;4.854;2023-02-04T06:51:19;55.97;;;14.10;;
69678;SDS011;56915;52.046;4.854;2023-02-04T06:56:39;47.33;;;12.20;;
69678;SDS011;56915;52.046;4.854;2023-02-04T06:59:06;43.72;;;10.85;;
69678;SDS011;56915;52.046;4.854;2023-02-04T07:01:34;42.88;;;10.88;;
69678;SDS011;56915;52.046;4.854;2023-02-04T07:04:01;46.38;;;13.50;;
69678;SDS011;56915;52.046;4.854;2023-02-04T07:06:28;35.90;;;5.75;;
69678;SDS011;56915;52.046;4.854;2023-02-04T07:11:57;30.25;;;4.20;;
69678;SDS011;56915;52.046;4.854;2023-02-04T07:14:24;26.58;;;3.67;;
69678;SDS011;56915;52.046;4.854;2023-02-04T07:16:50;32.75;;;4.00;;
69678;SDS011;56915;52.046;4.854;2023-02-04T07:19:17;30.70;;;3.50;;
69678;SDS011;56915;52.046;4.854;2023-02-04T07:21:46;29.77;;;3.70;;
69678;SDS011;56915;52.046;4.854;2023-02-04T07:24:13;29.27;;;3.72;;
69678;SDS011;56915;52.046;4.854;2023-02-04T07:26:40;26.85;;;3.58;;
69678;SDS011;56915;52.046;4.854;2023-02-04T07:29:07;27.35;;;3.40;;
69678;SDS011;56915;52.046;4.854;2023-02-04T07:31:45;30.05;;;4.00;;
69678;SDS011;56915;52.046;4.854;2023-02-04T07:34:13;28.70;;;3.73;;
69678;SDS011;56915;52.046;4.854;2023-02-04T07:36:40;27.23;;;3.75;;
69678;SDS011;56915;52.046;4.854;2023-02-04T07:39:07;31.33;;;3.97;;
69678;SDS011;56915;52.046;4.854;2023-02-04T07:41:34;24.75;;;3.50;;
69678;SDS011;56915;52.046;4.854;2023-02-04T07:44:01;34.28;;;4.57;;
69678;SDS011;56915;52.046;4.854;2023-02-04T07:46:29;31.60;;;4.07;;
69678;SDS011;56915;52.046;4.854;2023-02-04T07:48:56;22.75;;;3.88;;
69678;SDS011;56915;52.046;4.854;2023-02-04T07:51:25;32.03;;;4.47;;
69678;SDS011;56915;52.046;4.854;2023-02-04T07:53:53;29.98;;;4.00;;
69678;SDS011;56915;52.046;4.854;2023-02-04T07:56:21;25.70;;;3.65;;
69678;SDS011;56915;52.046;4.854;2023-02-04T07:58:48;28.90;;;4.13;;
69678;SDS011;56915;52.046;4.854;2023-02-04T08:01:15;26.45;;;4.00;;
69678;SDS011;56915;52.046;4.854;2023-02-04T08:03:42;37.78;;;4.53;;
69678;SDS011;56915;52.046;4.854;2023-02-04T08:06:09;26.30;;;4.57;;
69678;SDS011;56915;52.046;4.854;2023-02-04T08:08:36;30.88;;;4.35;;
69678;SDS011;56915;52.046;4.854;2023-02-04T08:11:04;28.67;;;5.77;;
69678;SDS011;56915;52.046;4.854;2023-02-04T08:13:31;29.20;;;5.68;;
69678;SDS011;56915;52.046;4.854;2023-02-04T08:15:58;37.13;;;4.82;;
69678;SDS011;56915;52.046;4.854;2023-02-04T08:18:25;28.77;;;4.63;;
69678;SDS011;56915;52.046;4.854;2023-02-04T08:20:51;26.95;;;3.85;;
69678;SDS011;56915;52.046;4.854;2023-02-04T08:23:18;30.63;;;4.10;;
69678;SDS011;56915;52.046;4.854;2023-02-04T08:25:45;24.55;;;4.65;;
69678;SDS011;56915;52.046;4.854;2023-02-04T08:28:12;23.92;;;4.55;;
69678;SDS011;56915;52.046;4.854;2023-02-04T08:30:39;31.77;;;4.95;;
69678;SDS011;56915;52.046;4.854;2023-02-04T08:33:07;32.35;;;4.95;;
69678;SDS011;56915;52.046;4.854;2023-02-04T08:35:33;34.10;;;5.90;;
69678;SDS011;56915;52.046;4.854;2023-02-04T08:38:00;38.20;;;6.70;;
69678;SDS011;56915;52.046;4.854;2023-02-04T08:40:27;40.08;;;8.25;;
69678;SDS011;56915;52.046;4.854;2023-02-04T08:42:54;37.30;;;7.93;;
69678;SDS011;56915;52.046;4.854;2023-02-04T08:45:21;40.30;;;7.10;;
69678;SDS011;56915;52.046;4.854;2023-02-04T08:47:48;41.30;;;6.47;;
69678;SDS011;56915;52.046;4.854;2023-02-04T08:50:15;31.60;;;6.40;;
69678;SDS011;56915;52.046;4.854;2023-02-04T08:52:43;30.38;;;6.75;;
69678;SDS011;56915;52.046;4.854;2023-02-04T08:55:10;31.10;;;6.35;;
69678;SDS011;56915;52.046;4.854;2023-02-04T09:00:16;39.47;;;6.50;;
69678;SDS011;56915;52.046;4.854;2023-02-04T09:02:43;31.58;;;5.95;;
69678;SDS011;56915;52.046;4.854;2023-02-04T09:05:21;33.05;;;6.07;;
69678;SDS011;56915;52.046;4.854;2023-02-04T09:07:48;32.92;;;4.80;;
69678;SDS011;56915;52.046;4.854;2023-02-04T09:10:15;30.17;;;4.40;;
69678;SDS011;56915;52.046;4.854;2023-02-04T09:12:42;21.53;;;4.13;;
69678;SDS011;56915;52.046;4.854;2023-02-04T09:15:09;24.95;;;4.13;;
69678;SDS011;56915;52.046;4.854;2023-02-04T09:17:38;28.52;;;4.30;;
69678;SDS011;56915;52.046;4.854;2023-02-04T09:20:05;21.77;;;3.88;;
69678;SDS011;56915;52.046;4.854;2023-02-04T09:22:32;27.95;;;4.35;;
69678;SDS011;56915;52.046;4.854;2023-02-04T09:24:59;29.40;;;4.83;;
69678;SDS011;56915;52.046;4.854;2023-02-04T09:27:25;27.77;;;4.18;;
69678;SDS011;56915;52.046;4.854;2023-02-04T09:29:52;28.27;;;4.95;;
69678;SDS011;56915;52.046;4.854;2023-02-04T09:32:19;22.70;;;4.18;;
69678;SDS011;56915;52.046;4.854;2023-02-04T09:34:47;35.50;;;5.03;;
69678;SDS011;56915;52.046;4.854;2023-02-04T09:37:13;26.70;;;3.83;;
69678;SDS011;56915;52.046;4.854;2023-02-04T09:39:40;31.83;;;3.97;;
69678;SDS011;56915;52.046;4.854;2023-02-04T09:42:08;24.25;;;4.00;;
69678;SDS011;56915;52.046;4.854;2023-02-04T09:44:38;27.95;;;3.88;;
69678;SDS011;56915;52.046;4.854;2023-02-04T09:47:08;26.55;;;4.07;;
69678;SDS011;56915;52.046;4.854;2023-02-04T09:49:36;28.73;;;4.03;;
69678;SDS011;56915;52.046;4.854;2023-02-04T09:52:03;31.10;;;4.18;;
69678;SDS011;56915;52.046;4.854;2023-02-04T09:54:34;23.42;;;3.88;;
69678;SDS011;56915;52.046;4.854;2023-02-04T09:57:08;25.40;;;3.88;;
69678;SDS011;56915;52.046;4.854;2023-02-04T09:59:43;26.80;;;3.92;;
69678;SDS011;56915;52.046;4.854;2023-02-04T10:02:21;45.83;;;14.33;;
69678;SDS011;56915;52.046;4.854;2023-02-04T10:04:51;38.53;;;16.23;;
69678;SDS011;56915;52.046;4.854;2023-02-04T10:07:22;22.20;;;4.22;;
69678;SDS011;56915;52.046;4.854;2023-02-04T10:09:51;24.88;;;3.90;;
69678;SDS011;56915;52.046;4.854;2023-02-04T10:12:20;24.08;;;3.92;;
69678;SDS011;56915;52.046;4.854;2023-02-04T10:14:47;23.73;;;3.33;;
69678;SDS011;56915;52.046;4.854;2023-02-04T10:17:16;24.05;;;2.97;;
69678;SDS011;56915;52.046;4.854;2023-02-04T10:19:47;21.65;;;3.30;;
69678;SDS011;56915;52.046;4.854;2023-02-04T10:22:18;24.73;;;3.20;;
69678;SDS011;56915;52.046;4.854;2023-02-04T10:24:46;28.38;;;2.97;;
69678;SDS011;56915;52.046;4.854;2023-02-04T10:27:13;22.03;;;2.67;;
69678;SDS011;56915;52.046;4.854;2023-02-04T10:29:54;29.17;;;3.33;;
69678;SDS011;56915;52.046;4.854;2023-02-04T10:32:25;20.77;;;2.60;;
69678;SDS011;56915;52.046;4.854;2023-02-04T10:34:58;21.73;;;2.45;;
69678;SDS011;56915;52.046;4.854;2023-02-04T10:37:26;20.17;;;2.70;;
69678;SDS011;56915;52.046;4.854;2023-02-04T10:39:54;20.97;;;2.70;;
69678;SDS011;56915;52.046;4.854;2023-02-04T10:42:22;21.27;;;2.22;;
69678;SDS011;56915;52.046;4.854;2023-02-04T10:44:50;17.95;;;2.70;;
69678;SDS011;56915;52.046;4.854;2023-02-04T10:47:18;24.55;;;3.03;;
69678;SDS011;56915;52.046;4.854;2023-02-04T10:49:57;19.25;;;2.33;;
69678;SDS011;56915;52.046;4.854;2023-02-04T10:52:34;15.97;;;2.20;;
69678;SDS011;56915;52.046;4.854;2023-02-04T10:55:04;20.23;;;3.00;;
69678;SDS011;56915;52.046;4.854;2023-02-04T10:57:37;24.77;;;3.00;;
69678;SDS011;56915;52.046;4.854;2023-02-04T11:00:06;21.00;;;2.92;;
69678;SDS011;56915;52.046;4.854;2023-02-04T11:05:34;20.23;;;2.53;;
69678;SDS011;56915;52.046;4.854;2023-02-04T11:08:02;21.25;;;2.10;;
69678;SDS011;56915;52.046;4.854;2023-02-04T11:10:45;20.25;;;2.40;;
69678;SDS011;56915;52.046;4.854;2023-02-04T11:13:20;18.58;;;2.10;;
69678;SDS011;56915;52.046;4.854;2023-02-04T11:16:09;20.13;;;2.72;;
69678;SDS011;56915;52.046;4.854;2023-02-04T11:18:52;18.43;;;2.43;;
69678;SDS011;56915;52.046;4.854;2023-02-04T11:26:45;21.95;;;2.88;;
69678;SDS011;56915;52.046;4.854;2023-02-04T11:32:00;21.73;;;3.40;;
69678;SDS011;56915;52.046;4.854;2023-02-04T11:34:51;26.30;;;3.75;;
69678;SDS011;56915;52.046;4.854;2023-02-04T11:37:27;19.52;;;3.05;;
69678;SDS011;56915;52.046;4.854;2023-02-04T11:40:01;20.55;;;3.58;;
69678;SDS011;56915;52.046;4.854;2023-02-04T11:42:45;21.77;;;4.40;;
69678;SDS011;56915;52.046;4.854;2023-02-04T11:45:20;15.20;;;4.07;;
69678;SDS011;56915;52.046;4.854;2023-02-04T11:47:55;22.20;;;4.22;;
69678;SDS011;56915;52.046;4.854;2023-02-04T11:50:28;16.23;;;3.80;;
69678;SDS011;56915;52.046;4.854;2023-02-04T11:53:03;17.05;;;3.72;;
69678;SDS011;56915;52.046;4.854;2023-02-04T11:55:33;15.93;;;3.05;;
69678;SDS011;56915;52.046;4.854;2023-02-04T11:58:02;18.30;;;3.47;;
69678;SDS011;56915;52.046;4.854;2023-02-04T12:00:29;14.73;;;2.95;;
69678;SDS011;56915;52.046;4.854;2023-02-04T12:06:57;12.20;;;2.08;;
69678;SDS011;56915;52.046;4.854;2023-02-04T12:09:29;11.18;;;2.20;;
69678;SDS011;56915;52.046;4.854;2023-02-04T12:11:58;11.30;;;1.73;;
69678;SDS011;56915;52.046;4.854;2023-02-04T12:14:27;9.77;;;1.60;;
69678;SDS011;56915;52.046;4.854;2023-02-04T12:16:58;10.52;;;2.00;;
69678;SDS011;56915;52.046;4.854;2023-02-04T12:19:26;11.55;;;1.60;;
69678;SDS011;56915;52.046;4.854;2023-02-04T12:21:53;7.68;;;1.08;;
69678;SDS011;56915;52.046;4.854;2023-02-04T12:24:20;8.13;;;1.30;;
69678;SDS011;56915;52.046;4.854;2023-02-04T12:26:47;10.18;;;0.90;;
69678;SDS011;56915;52.046;4.854;2023-02-04T12:29:41;7.88;;;1.20;;
69678;SDS011;56915;52.046;4.854;2023-02-04T12:32:08;10.63;;;1.25;;
69678;SDS011;56915;52.046;4.854;2023-02-04T12:34:35;6.45;;;1.60;;
69678;SDS011;56915;52.046;4.854;2023-02-04T12:37:02;5.73;;;1.50;;
69678;SDS011;56915;52.046;4.854;2023-02-04T12:39:28;7.90;;;1.77;;
69678;SDS011;56915;52.046;4.854;2023-02-04T12:41:57;7.97;;;1.30;;
69678;SDS011;56915;52.046;4.854;2023-02-04T12:44:24;6.15;;;1.73;;
69678;SDS011;56915;52.046;4.854;2023-02-04T12:46:51;11.15;;;2.95;;
69678;SDS011;56915;52.046;4.854;2023-02-04T12:49:19;9.30;;;1.40;;
69678;SDS011;56915;52.046;4.854;2023-02-04T12:51:46;7.28;;;1.40;;
69678;SDS011;56915;52.046;4.854;2023-02-04T12:54:12;8.95;;;1.38;;
69678;SDS011;56915;52.046;4.854;2023-02-04T12:56:39;10.23;;;1.75;;
69678;SDS011;56915;52.046;4.854;2023-02-04T12:59:06;9.48;;;1.33;;
69678;SDS011;56915;52.046;4.854;2023-02-04T13:01:33;8.43;;;1.23;;
69678;SDS011;56915;52.046;4.854;2023-02-04T13:04:00;5.55;;;1.75;;
69678;SDS011;56915;52.046;4.854;2023-02-04T13:06:26;11.65;;;1.92;;
69678;SDS011;56915;52.046;4.854;2023-02-04T13:11:47;10.40;;;1.90;;
69678;SDS011;56915;52.046;4.854;2023-02-04T13:14:14;6.80;;;1.50;;
69678;SDS011;56915;52.046;4.854;2023-02-04T13:16:41;20.70;;;8.30;;
69678;SDS011;56915;52.046;4.854;2023-02-04T13:19:08;10.32;;;2.20;;
69678;SDS011;56915;52.046;4.854;2023-02-04T13:21:38;8.52;;;1.90;;
69678;SDS011;56915;52.046;4.854;2023-02-04T13:24:08;11.35;;;3.58;;
69678;SDS011;56915;52.046;4.854;2023-02-04T13:26:35;10.60;;;1.90;;
69678;SDS011;56915;52.046;4.854;2023-02-04T13:29:02;10.43;;;1.85;;
69678;SDS011;56915;52.046;4.854;2023-02-04T13:31:29;10.90;;;2.03;;
69678;SDS011;56915;52.046;4.854;2023-02-04T13:33:56;12.50;;;2.22;;
69678;SDS011;56915;52.046;4.854;2023-02-04T13:36:23;7.63;;;1.70;;
69678;SDS011;56915;52.046;4.854;2023-02-04T13:38:53;6.70;;;1.70;;
69678;SDS011;56915;52.046;4.854;2023-02-04T13:41:20;7.43;;;1.95;;
69678;SDS011;56915;52.046;4.854;2023-02-04T13:43:49;6.45;;;1.60;;
69678;SDS011;56915;52.046;4.854;2023-02-04T13:46:16;7.88;;;1.70;;
69678;SDS011;56915;52.046;4.854;2023-02-04T13:48:43;9.55;;;1.95;;
69678;SDS011;56915;52.046;4.854;2023-02-04T13:51:12;12.13;;;3.50;;
69678;SDS011;56915;52.046;4.854;2023-02-04T13:53:41;10.82;;;4.72;;
69678;SDS011;56915;52.046;4.854;2023-02-04T13:56:11;9.60;;;3.22;;
69678;SDS011;56915;52.046;4.854;2023-02-04T13:58:41;8.13;;;2.03;;
69678;SDS011;56915;52.046;4.854;2023-02-04T14:01:11;8.25;;;1.67;;
69678;SDS011;56915;52.046;4.854;2023-02-04T14:03:41;9.83;;;3.00;;
69678;SDS011;56915;52.046;4.854;2023-02-04T14:06:11;14.13;;;2.35;;
69678;SDS011;56915;52.046;4.854;2023-02-04T14:08:38;10.73;;;2.03;;
69678;SDS011;56915;52.046;4.854;2023-02-04T14:11:08;7.82;;;2.20;;
69678;SDS011;56915;52.046;4.854;2023-02-04T14:13:39;10.63;;;2.03;;
69678;SDS011;56915;52.046;4.854;2023-02-04T14:16:06;10.63;;;2.20;;
69678;SDS011;56915;52.046;4.854;2023-02-04T14:18:34;6.07;;;1.45;;
69678;SDS011;56915;52.046;4.854;2023-02-04T14:21:02;12.30;;;2.45;;
69678;SDS011;56915;52.046;4.854;2023-02-04T14:23:30;9.57;;;2.25;;
69678;SDS011;56915;52.046;4.854;2023-02-04T14:25:59;10.65;;;2.28;;
69678;SDS011;56915;52.046;4.854;2023-02-04T14:28:27;10.17;;;2.30;;
69678;SDS011;56915;52.046;4.854;2023-02-04T14:30:54;8.52;;;2.20;;
69678;SDS011;56915;52.046;4.854;2023-02-04T14:33:22;12.13;;;2.67;;
69678;SDS011;56915;52.046;4.854;2023-02-04T14:35:52;12.50;;;3.00;;
69678;SDS011;56915;52.046;4.854;2023-02-04T14:38:19;12.70;;;3.08;;
69678;SDS011;56915;52.046;4.854;2023-02-04T14:40:50;12.17;;;3.27;;
69678;SDS011;56915;52.046;4.854;2023-02-04T14:43:42;13.90;;;2.97;;
69678;SDS011;56915;52.046;4.854;2023-02-04T14:46:11;12.65;;;3.10;;
69678;SDS011;56915;52.046;4.854;2023-02-04T14:48:38;12.43;;;3.03;;
69678;SDS011;56915;52.046;4.854;2023-02-04T14:51:13;9.45;;;3.10;;
69678;SDS011;56915;52.046;4.854;2023-02-04T14:53:47;10.30;;;2.93;;
69678;SDS011;56915;52.046;4.854;2023-02-04T14:57:03;10.43;;;3.10;;
69678;SDS011;56915;52.046;4.854;2023-02-04T14:59:21;11.45;;;2.67;;
69678;SDS011;56915;52.046;4.854;2023-02-04T15:02:02;12.38;;;3.10;;
69678;SDS011;56915;52.046;4.854;2023-02-04T15:05:44;12.35;;;3.30;;
69678;SDS011;56915;52.046;4.854;2023-02-04T15:08:18;19.37;;;3.80;;
69678;SDS011;56915;52.046;4.854;2023-02-04T15:10:56;20.02;;;4.63;;
69678;SDS011;56915;52.046;4.854;2023-02-04T15:13:32;24.63;;;4.30;;
69678;SDS011;56915;52.046;4.854;2023-02-04T15:15:59;21.63;;;4.43;;
69678;SDS011;56915;52.046;4.854;2023-02-04T15:18:30;22.10;;;4.97;;
69678;SDS011;56915;52.046;4.854;2023-02-04T15:20:57;18.77;;;5.03;;
69678;SDS011;56915;52.046;4.854;2023-02-04T15:23:27;19.02;;;4.43;;
69678;SDS011;56915;52.046;4.854;2023-02-04T15:25:56;24.33;;;6.07;;
69678;SDS011;56915;52.046;4.854;2023-02-04T15:28:23;22.55;;;5.28;;
69678;SDS011;56915;52.046;4.854;2023-02-04T15:30:53;20.73;;;5.50;;
69678;SDS011;56915;52.046;4.854;2023-02-04T15:33:21;17.90;;;4.80;;
69678;SDS011;56915;52.046;4.854;2023-02-04T15:35:48;24.90;;;5.75;;
69678;SDS011;56915;52.046;4.854;2023-02-04T15:38:15;18.65;;;4.95;;
69678;SDS011;56915;52.046;4.854;2023-02-04T15:40:42;19.17;;;5.00;;
69678;SDS011;56915;52.046;4.854;2023-02-04T15:43:09;23.27;;;5.05;;
69678;SDS011;56915;52.046;4.854;2023-02-04T15:45:36;19.50;;;5.17;;
69678;SDS011;56915;52.046;4.854;2023-02-04T15:48:06;18.77;;;4.90;;
69678;SDS011;56915;52.046;4.854;2023-02-04T15:50:34;21.60;;;5.68;;
69678;SDS011;56915;52.046;4.854;2023-02-04T15:53:01;19.88;;;4.88;;
69678;SDS011;56915;52.046;4.854;2023-02-04T15:55:28;23.42;;;4.90;;
69678;SDS011;56915;52.046;4.854;2023-02-04T15:57:55;16.27;;;5.20;;
69678;SDS011;56915;52.046;4.854;2023-02-04T16:00:22;24.13;;;4.88;;
69678;SDS011;56915;52.046;4.854;2023-02-04T16:02:49;19.48;;;4.93;;
69678;SDS011;56915;52.046;4.854;2023-02-04T16:05:16;17.10;;;4.70;;
69678;SDS011;56915;52.046;4.854;2023-02-04T16:07:43;23.20;;;5.20;;
69678;SDS011;56915;52.046;4.854;2023-02-04T16:10:10;22.73;;;4.90;;
69678;SDS011;56915;52.046;4.854;2023-02-04T16:12:37;18.80;;;4.97;;
69678;SDS011;56915;52.046;4.854;2023-02-04T16:15:04;23.20;;;5.22;;
69678;SDS011;56915;52.046;4.854;2023-02-04T16:17:31;20.60;;;5.20;;
69678;SDS011;56915;52.046;4.854;2023-02-04T16:19:58;20.83;;;4.90;;
69678;SDS011;56915;52.046;4.854;2023-02-04T16:22:26;21.07;;;5.20;;
69678;SDS011;56915;52.046;4.854;2023-02-04T16:25:21;19.95;;;5.20;;
69678;SDS011;56915;52.046;4.854;2023-02-04T16:27:49;21.83;;;5.10;;
69678;SDS011;56915;52.046;4.854;2023-02-04T16:30:16;20.85;;;5.55;;
69678;SDS011;56915;52.046;4.854;2023-02-04T16:32:55;19.60;;;5.50;;